KAAF/AAF METAR and TAF weather

Enter ICAO airport designator
Station Type Date Time Source
KAAF METAR 2024/02/26 15:53 UTC NOAA

KAAF 261553Z AUTO 12009KT 10SM CLR 19/13 A3022 RMK AO2 SLP233 T01940133


Station Type Date Time Source
KAAF Decoded METAR 2024/02/26 15:53 UTC NOAA

APALACHICOLA MUNICIPAL AIRPORT, FL, United States (KAAF) 29-44N 085-01W 5M
Feb 26, 2024 - 10:53 AM EST / 2024.02.26 1553 UTC
Wind: from the ESE (120 degrees) at 10 MPH (9 KT):0
Visibility: 10 mile(s):0
Sky conditions: clear
Temperature: 66.9 F (19.4 C)
Dew Point: 55.9 F (13.3 C)
Relative Humidity: 67%
Pressure (altimeter): 30.22 in. Hg (1023 hPa)
ob: KAAF 261553Z AUTO 12009KT 10SM CLR 19/13 A3022 RMK AO2 SLP233 T01940133
cycle: 16

Station Type Date Time Source
KAAF TAF UTC NOAA

Error!

Example: see airport list